Airfield :
LOGIN :

Register | Disclaimer

   EN    FR    IT 

 










Legend :    VFR   Marginal VFR   IFR   Intensive IFR   Very Intensive IFR
Visi :
Ceiling :
>= 8 km
>= 3000ft
5 to 8 km
1000 to 3000 ft
1500m to 5 km
500 to 1000 ft
800 to 1500m
200 to 500 ft
< 800m
< 200 ft
Symbols :   Thunderstorms  Fog  Heavy snow  Heavy precipitations  Wind > 20 kt
SIGMETs :     Misc.  Thunderstorms  Icing  Turbulence  Mountain Waves  Volcanic Ashes






- Airport Elevation : 580 ft


LFOA - Avord

CURRENT METAR :
  • 172030Z AUTO 19008KT CAVOK 14/12 Q1013 TEMPO 3000 SHRA BKN020TCU

EXPIRED METARs :
  • 172000Z AUTO 19009KT CAVOK 14/12 Q1013 TEMPO 4000 -SHRA BKN006 SCT015TCU
  • 171930Z AUTO 20008KT CAVOK 14/12 Q1013 TEMPO 4000 -SHRA BKN006 SCT015TCU
  • 171900Z AUTO 19008KT CAVOK 14/12 Q1013 TEMPO 4000 -SHRA BKN006 SCT015TCU
  • 171830Z AUTO 20008KT CAVOK 15/13 Q1013 TEMPO 4000 -SHRA BKN006 SCT015TCU
  • 171800Z AUTO 20008KT 9999 FEW031 SCT046 BKN090 15/13 Q1013 TEMPO 4000 -SHRA BKN006 SCT015TCU

TAF TAF LFOA
Valid from the 17 at 21:00 until the 18 at 21:00 UTC


172000Z 1721/1821 19010KT CAVOK
TEMPO 1721/1723 3000 SHRA BKN020TCU
BECMG 1804/1806 22010G20KT
TEMPO 1808/1811 27010G30KT 3000 +RA BKN015TCU OVC025
PROB40
TEMPO 1813/1818 4000 -SHRA SCT015TCU
BECMG 1818/1820 17007KT



MET'MAP, your aeronautical weather chart ! - Copyright ORBIFLY December 2007 - Disclaimer

ORBIFLY MET'MAP TEAM :

Programming & Development : Alexandra Zaïnal
Concept & Development : Baudouin d'Aumeries
Co-Development & Prog : Marc-Olivier Méhu
Technical & hardware support : Manuel Goepfert

Contact : metmap@orbifly.com




SOURCES & CREDITS :

   NOAA